createdAt,value
2018-06-20T00:01:38.929Z,102128.72
2018-06-20T00:04:07.339Z,102134.94
2018-06-20T00:06:39.461Z,102131.97
2018-06-20T00:09:10.738Z,102130.88
2018-06-20T00:11:39.360Z,102124.55
2018-06-20T00:14:07.766Z,102121.27
2018-06-20T00:16:36.334Z,102122.07
2018-06-20T00:19:04.638Z,102114.49
2018-06-20T00:21:33.179Z,102117.52
2018-06-20T00:24:01.925Z,102102.89
2018-06-20T00:26:30.452Z,102114.98
2018-06-20T00:28:58.967Z,102110.30
2018-06-20T00:31:27.468Z,102102.98
2018-06-20T00:33:56.414Z,102093.83
2018-06-20T00:36:25.000Z,102095.73
2018-06-20T00:38:53.535Z,102097.64
2018-06-20T00:41:22.081Z,102097.09
2018-06-20T00:43:50.676Z,102099.86
2018-06-20T00:46:19.509Z,102098.34
2018-06-20T00:48:48.202Z,102094.11
2018-06-20T00:51:16.676Z,102100.79
2018-06-20T00:53:45.651Z,102086.63
2018-06-20T00:56:25.115Z,102084.95
2018-06-20T00:58:53.568Z,102085.73
2018-06-20T01:01:22.595Z,102090.05
2018-06-20T01:03:52.033Z,102082.42
2018-06-20T01:06:21.093Z,102088.44
2018-06-20T01:08:53.650Z,102083.02
2018-06-20T01:11:22.816Z,102076.52
2018-06-20T01:13:51.554Z,102080.58
2018-06-20T01:16:20.104Z,102079.86
2018-06-20T01:18:48.732Z,102078.34
2018-06-20T01:21:17.144Z,102076.73
2018-06-20T01:23:45.896Z,102072.77
2018-06-20T01:26:14.469Z,102080.32
2018-06-20T01:28:43.158Z,102079.77
2018-06-20T01:31:11.756Z,102079.61
2018-06-20T01:33:40.297Z,102071.42
2018-06-20T01:36:08.931Z,102075.48
2018-06-20T01:38:37.372Z,102070.13
2018-06-20T01:41:06.001Z,102070.70
2018-06-20T01:43:34.543Z,102065.59
2018-06-20T01:46:03.263Z,102067.74
2018-06-20T01:48:31.920Z,102064.00
2018-06-20T01:51:00.574Z,102059.14
2018-06-20T01:53:29.144Z,102066.00
2018-06-20T01:55:57.435Z,102066.06
2018-06-20T01:58:26.452Z,102068.77
2018-06-20T02:00:55.179Z,102069.25
2018-06-20T02:03:23.921Z,102067.67
2018-06-20T02:05:52.445Z,102067.03
2018-06-20T02:08:20.892Z,102064.97
2018-06-20T02:10:49.773Z,102061.68
2018-06-20T02:13:18.294Z,102062.26
2018-06-20T02:15:47.095Z,102055.17
2018-06-20T02:18:15.760Z,102057.45
2018-06-20T02:20:44.220Z,102060.16
2018-06-20T02:23:12.823Z,102060.64
2018-06-20T02:25:41.697Z,102054.20
2018-06-20T02:28:10.149Z,102054.69
2018-06-20T02:30:38.476Z,102055.22
2018-06-20T02:33:07.220Z,102054.73
2018-06-20T02:35:35.772Z,102061.27
2018-06-20T02:38:04.433Z,102054.13
2018-06-20T02:40:32.864Z,102044.66
2018-06-20T02:43:01.103Z,102046.49
2018-06-20T02:45:29.574Z,102040.60
2018-06-20T02:47:58.778Z,102043.63
2018-06-20T02:50:27.441Z,102037.73
2018-06-20T02:52:55.871Z,102042.44
2018-06-20T02:55:24.549Z,102043.53
2018-06-20T02:57:53.040Z,102040.50
2018-06-20T03:00:21.749Z,102041.95
2018-06-20T03:02:50.363Z,102040.67
2018-06-20T03:05:18.992Z,102045.05
2018-06-20T03:07:47.517Z,102039.95
2018-06-20T03:10:15.941Z,102031.28
2018-06-20T03:12:44.393Z,102029.61
2018-06-20T03:15:13.004Z,102031.19
2018-06-20T03:17:41.470Z,102025.78
2018-06-20T03:20:10.036Z,102029.52
2018-06-20T03:22:38.689Z,102024.97
2018-06-20T03:25:07.356Z,102021.17
2018-06-20T03:27:36.022Z,102020.20
2018-06-20T03:30:05.687Z,102020.78
2018-06-20T03:32:34.341Z,102025.12
2018-06-20T03:35:02.765Z,102024.09
2018-06-20T03:37:31.318Z,102021.97
2018-06-20T03:39:59.916Z,102022.74
2018-06-20T03:42:28.740Z,102019.81
2018-06-20T03:44:57.367Z,102023.33
2018-06-20T03:47:26.260Z,102018.94
2018-06-20T03:49:54.644Z,102021.88
2018-06-20T03:52:22.985Z,102019.97
2018-06-20T03:54:51.500Z,102020.91
2018-06-20T03:57:20.100Z,102018.14
2018-06-20T03:59:48.573Z,102015.28
2018-06-20T04:02:17.385Z,102012.56
2018-06-20T04:04:45.901Z,102013.70
2018-06-20T04:07:14.703Z,102011.92
2018-06-20T04:09:43.174Z,102014.80
2018-06-20T04:12:11.686Z,102012.24
2018-06-20T04:14:40.189Z,102010.25
2018-06-20T04:17:08.849Z,102015.66
2018-06-20T04:19:37.412Z,102020.30
2018-06-20T04:22:05.934Z,102013.69
2018-06-20T04:24:34.564Z,102016.88
2018-06-20T04:27:03.041Z,102011.72
2018-06-20T04:29:31.694Z,102009.50
2018-06-20T04:32:00.230Z,102008.85
2018-06-20T04:34:28.804Z,102008.75
2018-06-20T04:36:57.308Z,102004.95
2018-06-20T04:39:26.308Z,102007.48
2018-06-20T04:41:55.078Z,101998.66
2018-06-20T04:44:23.492Z,102007.31
2018-06-20T04:46:52.255Z,102011.61
2018-06-20T04:49:20.605Z,102008.73
2018-06-20T04:51:49.520Z,102014.85
2018-06-20T04:54:17.985Z,102014.94
2018-06-20T04:56:46.732Z,102009.59
2018-06-20T04:59:15.133Z,102013.03
2018-06-20T05:01:43.585Z,102011.95
2018-06-20T05:04:12.193Z,102009.72
2018-06-20T05:06:40.532Z,102004.20
2018-06-20T05:09:19.506Z,102003.30
2018-06-20T05:11:49.728Z,102006.20
2018-06-20T05:14:19.037Z,102011.62
2018-06-20T05:16:47.925Z,102008.69
2018-06-20T05:19:16.354Z,102009.16
2018-06-20T05:21:44.933Z,102006.45
2018-06-20T05:24:13.376Z,102008.79
2018-06-20T05:26:42.040Z,102001.58
2018-06-20T05:29:11.064Z,102004.16
2018-06-20T05:31:39.548Z,102004.18
2018-06-20T05:34:08.055Z,101997.73
2018-06-20T05:36:36.686Z,101997.75
2018-06-20T05:39:09.055Z,102000.77
2018-06-20T05:41:37.454Z,101996.08
2018-06-20T05:44:06.239Z,101991.35
2018-06-20T05:46:34.899Z,101993.84
2018-06-20T05:49:03.468Z,101993.52
2018-06-20T05:51:32.252Z,101993.44
2018-06-20T05:54:01.117Z,101989.97
2018-06-20T05:56:29.500Z,101991.85
2018-06-20T05:58:58.011Z,101991.89
2018-06-20T06:01:27.748Z,101992.23
2018-06-20T06:03:56.702Z,101992.30
2018-06-20T06:06:25.488Z,101994.77
2018-06-20T06:08:54.014Z,101995.02
2018-06-20T06:11:22.694Z,101992.73
2018-06-20T06:13:51.316Z,101997.61
2018-06-20T06:16:19.888Z,102003.05
2018-06-20T06:18:48.784Z,101994.11
2018-06-20T06:21:17.684Z,101994.80
2018-06-20T06:23:46.171Z,101997.98
2018-06-20T06:26:14.983Z,101998.20
2018-06-20T06:28:43.416Z,101991.06
2018-06-20T06:31:12.030Z,101993.38
2018-06-20T06:33:40.577Z,101999.36
2018-06-20T06:36:09.312Z,101993.47
2018-06-20T06:38:38.033Z,101994.01
2018-06-20T06:41:06.643Z,101998.72
2018-06-20T06:43:35.174Z,102009.29
2018-06-20T06:46:10.772Z,102005.35
2018-06-20T06:48:39.496Z,101997.85
2018-06-20T06:51:08.014Z,101995.94
2018-06-20T06:53:36.249Z,101999.58
2018-06-20T06:56:04.720Z,101993.25
2018-06-20T06:58:33.071Z,101993.94
2018-06-20T07:01:01.677Z,101994.62
2018-06-20T07:03:30.561Z,101992.91
2018-06-20T07:05:59.309Z,101987.70
2018-06-20T07:08:27.687Z,101996.23
2018-06-20T07:10:56.545Z,101995.09
2018-06-20T07:13:25.390Z,101992.01
2018-06-20T07:15:53.772Z,101992.11
2018-06-20T07:18:22.208Z,101994.54
2018-06-20T07:20:50.722Z,101985.92
2018-06-20T07:23:19.281Z,101989.98
2018-06-20T07:25:47.700Z,101984.75
2018-06-20T07:28:16.261Z,101979.42
2018-06-20T07:30:45.520Z,101976.71
2018-06-20T07:33:14.005Z,101978.10
2018-06-20T07:35:43.024Z,101984.17
2018-06-20T07:38:11.811Z,101980.19
2018-06-20T07:40:43.516Z,101972.55
2018-06-20T07:43:12.321Z,101975.88
2018-06-20T07:45:40.829Z,101964.30
2018-06-20T07:48:09.578Z,101975.41
2018-06-20T07:50:38.237Z,101969.22
2018-06-20T07:53:06.772Z,101975.39
2018-06-20T07:55:35.342Z,101978.22
2018-06-20T07:58:04.217Z,101971.37
2018-06-20T08:00:38.423Z,101977.89
2018-06-20T08:03:17.365Z,101973.21
2018-06-20T08:05:51.687Z,101972.63
2018-06-20T08:08:25.625Z,101974.66
2018-06-20T08:10:59.940Z,101971.05
2018-06-20T08:13:34.227Z,101969.56
2018-06-20T08:16:08.205Z,101967.30
2018-06-20T08:18:43.175Z,101968.65
2018-06-20T08:21:11.688Z,101966.97
2018-06-20T08:23:40.264Z,101964.90
2018-06-20T08:26:08.696Z,101962.50
2018-06-20T08:28:37.221Z,101961.24
2018-06-20T08:31:05.592Z,101968.95
2018-06-20T08:33:34.055Z,101959.88
2018-06-20T08:36:02.534Z,101959.64
2018-06-20T08:38:31.154Z,101956.88
2018-06-20T08:40:59.498Z,101957.12
2018-06-20T08:43:28.141Z,101959.77
2018-06-20T08:45:56.658Z,101954.13
2018-06-20T08:48:25.151Z,101956.75
2018-06-20T08:50:53.765Z,101942.66
2018-06-20T08:53:22.621Z,101946.69
2018-06-20T08:55:51.464Z,101939.47
2018-06-20T08:58:19.841Z,101933.80
2018-06-20T09:00:54.012Z,101934.59
2018-06-20T09:03:23.090Z,101929.53
2018-06-20T09:05:57.434Z,101930.46
2018-06-20T09:08:31.401Z,101931.84
2018-06-20T09:11:05.367Z,101932.67
2018-06-20T09:13:40.715Z,101922.63
2018-06-20T09:16:14.900Z,101919.34
2018-06-20T09:18:48.987Z,101919.39
2018-06-20T09:21:17.258Z,101920.73
2018-06-20T09:23:45.852Z,101918.45
2018-06-20T09:26:14.099Z,101916.53
2018-06-20T09:28:42.632Z,101918.47
2018-06-20T09:31:11.371Z,101913.75
2018-06-20T09:33:40.277Z,101924.25
2018-06-20T09:36:09.240Z,101919.50
2018-06-20T09:38:37.961Z,101917.21
2018-06-20T09:41:06.529Z,101914.36
2018-06-20T09:43:36.416Z,101918.47
2018-06-20T09:46:05.105Z,101915.70
2018-06-20T09:48:33.476Z,101914.03
2018-06-20T09:51:02.083Z,101912.02
2018-06-20T09:53:30.873Z,101908.36
2018-06-20T09:55:59.454Z,101907.34
2018-06-20T09:58:27.853Z,101908.93
2018-06-20T10:01:01.894Z,101909.00
2018-06-20T10:03:36.215Z,101902.48
2018-06-20T10:07:10.358Z,101896.76
2018-06-20T10:09:44.433Z,101890.13
2018-06-20T10:12:18.549Z,101886.45
2018-06-20T10:14:47.185Z,101885.47
2018-06-20T10:17:15.762Z,101887.27
2018-06-20T10:19:44.437Z,101878.90
2018-06-20T10:22:13.247Z,101884.37
2018-06-20T10:24:42.402Z,101882.55
2018-06-20T10:27:10.843Z,101886.17
2018-06-20T10:29:39.595Z,101887.20
2018-06-20T10:32:08.066Z,101879.58
2018-06-20T10:34:36.568Z,101880.14
2018-06-20T10:37:05.203Z,101880.32
2018-06-20T10:39:33.772Z,101876.91
2018-06-20T10:42:02.362Z,101875.02
2018-06-20T10:44:31.251Z,101873.72
2018-06-20T10:47:05.419Z,101860.94
2018-06-20T10:49:34.024Z,101862.98
2018-06-20T10:52:02.789Z,101860.00
2018-06-20T10:54:31.402Z,101856.39
2018-06-20T10:57:05.588Z,101857.27
2018-06-20T10:59:39.688Z,101852.82
2018-06-20T11:02:13.708Z,101851.06
2018-06-20T11:04:47.946Z,101848.69
2018-06-20T11:07:22.050Z,101855.49
2018-06-20T11:09:56.033Z,101843.88
2018-06-20T11:12:30.184Z,101846.02
2018-06-20T11:14:58.760Z,101841.52
2018-06-20T11:17:29.160Z,101838.98
2018-06-20T11:20:02.226Z,101834.88
2018-06-20T11:22:30.928Z,101828.09
2018-06-20T11:24:59.762Z,101821.02
2018-06-20T11:27:28.208Z,101822.51
2018-06-20T11:29:56.719Z,101821.09
2018-06-20T11:32:25.465Z,101818.55
2018-06-20T11:34:54.344Z,101813.56
2018-06-20T11:37:23.343Z,101807.62
2018-06-20T11:39:52.145Z,101809.64
2018-06-20T11:42:21.078Z,101807.48
2018-06-20T11:44:49.717Z,101801.44
2018-06-20T11:47:24.023Z,101796.56
2018-06-20T11:49:52.646Z,101800.27
2018-06-20T11:52:26.792Z,101793.42
2018-06-20T11:54:59.806Z,101786.09
2018-06-20T11:57:28.491Z,101790.17
2018-06-20T12:00:02.668Z,101787.45
2018-06-20T12:02:36.751Z,101784.84
2018-06-20T12:05:10.690Z,101786.16
2018-06-20T12:07:44.973Z,101771.98
2018-06-20T12:10:19.372Z,101768.53
2018-06-20T12:12:53.648Z,101776.80
2018-06-20T12:15:29.208Z,101771.58
2018-06-20T12:18:03.297Z,101762.61
2018-06-20T12:20:37.446Z,101769.45
2018-06-20T12:23:11.603Z,101774.03
2018-06-20T12:25:45.928Z,101765.08
2018-06-20T12:28:20.090Z,101762.34
2018-06-20T12:30:54.209Z,101750.70
2018-06-20T12:33:28.317Z,101755.25
2018-06-20T12:36:02.270Z,101748.03
2018-06-20T12:38:36.697Z,101743.98
2018-06-20T12:41:11.219Z,101749.55
2018-06-20T12:43:45.520Z,101747.66
2018-06-20T12:46:19.384Z,101740.69
2018-06-20T12:48:47.839Z,101738.13
2018-06-20T12:51:16.195Z,101742.39
2018-06-20T12:53:44.835Z,101735.86
2018-06-20T12:56:13.267Z,101721.34
2018-06-20T12:58:42.299Z,101722.78
2018-06-20T13:01:10.861Z,101721.28
2018-06-20T13:03:39.151Z,101721.64
2018-06-20T13:06:07.517Z,101710.41
2018-06-20T13:08:36.346Z,101722.95
2018-06-20T13:11:05.024Z,101716.14
2018-06-20T13:13:33.523Z,101714.41
2018-06-20T13:16:02.237Z,101714.98
2018-06-20T13:18:30.801Z,101710.39
2018-06-20T13:20:59.229Z,101714.72
2018-06-20T13:23:28.059Z,101706.14
2018-06-20T13:25:56.552Z,101703.19
2018-06-20T13:28:25.266Z,101701.69
2018-06-20T13:30:59.234Z,101700.19
2018-06-20T13:33:33.616Z,101696.67
2018-06-20T13:36:07.719Z,101698.81
2018-06-20T13:38:42.013Z,101688.83
2018-06-20T13:41:16.119Z,101688.68
2018-06-20T13:43:50.394Z,101683.72
2018-06-20T13:46:24.459Z,101679.72
2018-06-20T13:48:55.772Z,101684.01
2018-06-20T13:51:24.196Z,101683.30
2018-06-20T13:53:52.729Z,101676.71
2018-06-20T13:56:21.268Z,101678.52
2018-06-20T13:58:49.881Z,101668.11
2018-06-20T14:01:18.266Z,101674.66
2018-06-20T14:03:47.040Z,101664.91
2018-06-20T14:06:15.827Z,101663.78
2018-06-20T14:08:45.249Z,101662.17
2018-06-20T14:11:13.687Z,101661.79
2018-06-20T14:13:42.130Z,101655.92
2018-06-20T14:16:10.750Z,101655.05
2018-06-20T14:18:39.441Z,101652.84
2018-06-20T14:21:13.602Z,101659.17
2018-06-20T14:23:42.340Z,101654.22
2018-06-20T14:26:11.009Z,101652.05
2018-06-20T14:28:39.607Z,101651.64
2018-06-20T14:31:14.200Z,101652.64
2018-06-20T14:33:48.313Z,101652.38
2018-06-20T14:36:22.412Z,101645.74
2018-06-20T14:38:56.630Z,101646.05
2018-06-20T14:41:25.695Z,101637.44
2018-06-20T14:43:59.736Z,101634.34
2018-06-20T14:46:30.050Z,101629.69
2018-06-20T14:48:58.664Z,101632.83
2018-06-20T14:51:27.282Z,101630.03
2018-06-20T14:53:55.766Z,101622.97
2018-06-20T14:56:24.562Z,101629.59
2018-06-20T14:58:53.348Z,101621.61
2018-06-20T15:01:21.889Z,101620.23
2018-06-20T15:03:50.493Z,101617.27
2018-06-20T15:06:18.987Z,101611.81
2018-06-20T15:08:47.765Z,101610.72
2018-06-20T15:11:16.317Z,101611.00
2018-06-20T15:13:44.815Z,101601.56
2018-06-20T15:16:18.620Z,101603.91
2018-06-20T15:18:47.234Z,101602.28
2018-06-20T15:21:15.653Z,101595.74
2018-06-20T15:23:44.266Z,101584.00
2018-06-20T15:26:18.097Z,101587.59
2018-06-20T15:28:52.108Z,101590.51
2018-06-20T15:31:26.244Z,101589.93
2018-06-20T15:34:00.404Z,101585.62
2018-06-20T15:36:34.305Z,101584.28
2018-06-20T15:39:03.046Z,101579.41
2018-06-20T15:41:31.450Z,101572.81
2018-06-20T15:44:00.121Z,101576.78
2018-06-20T15:46:28.652Z,101568.71
2018-06-20T15:48:57.084Z,101571.82
2018-06-20T15:51:25.746Z,101569.65
2018-06-20T15:53:54.270Z,101563.89
2018-06-20T15:56:23.041Z,101560.91
2018-06-20T15:58:51.528Z,101565.02
2018-06-20T16:01:19.922Z,101560.53
2018-06-20T16:03:48.757Z,101556.97
2018-06-20T16:06:17.403Z,101551.06
2018-06-20T16:08:51.606Z,101555.30
2018-06-20T16:11:20.003Z,101553.87
2018-06-20T16:13:48.501Z,101548.19
2018-06-20T16:16:16.812Z,101547.14
2018-06-20T16:18:51.160Z,101543.17
2018-06-20T16:21:25.471Z,101546.80
2018-06-20T16:23:59.462Z,101538.19
2018-06-20T16:26:33.592Z,101531.70
2018-06-20T16:29:07.656Z,101534.08
2018-06-20T16:31:36.031Z,101536.00
2018-06-20T16:34:04.455Z,101528.98
2018-06-20T16:36:33.266Z,101528.60
2018-06-20T16:39:01.677Z,101524.95
2018-06-20T16:41:30.050Z,101530.54
2018-06-20T16:43:58.351Z,101529.33
2018-06-20T16:46:26.890Z,101524.05
2018-06-20T16:48:55.741Z,101514.66
2018-06-20T16:51:24.726Z,101517.23
2018-06-20T16:53:53.677Z,101512.71
2018-06-20T16:56:22.337Z,101515.97
2018-06-20T16:58:50.808Z,101510.91
2018-06-20T17:01:24.910Z,101513.92
2018-06-20T17:03:53.437Z,101508.44
2018-06-20T17:06:22.180Z,101506.55
2018-06-20T17:08:50.776Z,101506.33
2018-06-20T17:11:19.213Z,101499.79
2018-06-20T17:13:53.565Z,101503.65
2018-06-20T17:16:27.631Z,101504.70
2018-06-20T17:19:01.632Z,101499.97
2018-06-20T17:21:35.770Z,101501.97
2018-06-20T17:24:09.928Z,101498.63
2018-06-20T17:26:38.436Z,101496.72
2018-06-20T17:29:06.888Z,101493.70
2018-06-20T17:31:35.811Z,101496.61
2018-06-20T17:34:04.482Z,101491.56
2018-06-20T17:36:33.245Z,101496.76
2018-06-20T17:39:01.747Z,101493.89
2018-06-20T17:41:30.391Z,101488.20
2018-06-20T17:43:58.767Z,101483.60
2018-06-20T17:46:27.521Z,101475.94
2018-06-20T17:48:56.316Z,101474.48
2018-06-20T17:51:25.162Z,101473.94
2018-06-20T17:53:53.742Z,101473.30
2018-06-20T17:56:22.716Z,101468.07
2018-06-20T17:58:51.695Z,101465.91
2018-06-20T18:01:20.024Z,101470.53
2018-06-20T18:03:48.694Z,101471.11
2018-06-20T18:06:22.637Z,101474.72
2018-06-20T18:08:56.540Z,101467.48
2018-06-20T18:11:30.929Z,101461.50
2018-06-20T18:14:05.049Z,101464.91
2018-06-20T18:16:39.018Z,101464.77
2018-06-20T18:19:07.412Z,101462.79
2018-06-20T18:21:35.760Z,101457.13
2018-06-20T18:24:04.309Z,101459.70
2018-06-20T18:26:33.186Z,101454.82
2018-06-20T18:29:01.566Z,101451.06
2018-06-20T18:31:30.333Z,101456.19
2018-06-20T18:33:58.901Z,101454.09
2018-06-20T18:36:27.564Z,101445.48
2018-06-20T18:38:56.392Z,101441.31
2018-06-20T18:41:24.660Z,101445.22
2018-06-20T18:43:53.537Z,101447.30
2018-06-20T18:46:22.166Z,101437.62
2018-06-20T18:48:50.858Z,101441.22
2018-06-20T18:51:19.567Z,101436.66
2018-06-20T18:53:48.452Z,101438.98
2018-06-20T18:56:16.969Z,101444.19
2018-06-20T18:58:51.253Z,101445.42
2018-06-20T19:01:25.315Z,101443.92
2018-06-20T19:03:59.576Z,101439.09
2018-06-20T19:06:33.783Z,101442.20
2018-06-20T19:09:07.726Z,101437.68
2018-06-20T19:11:36.135Z,101438.48
2018-06-20T19:14:04.963Z,101439.57
2018-06-20T19:16:33.561Z,101436.59
2018-06-20T19:19:02.104Z,101434.39
2018-06-20T19:21:31.024Z,101437.87
2018-06-20T19:23:59.716Z,101437.40
2018-06-20T19:26:28.177Z,101441.20
2018-06-20T19:28:56.909Z,101443.83
2018-06-20T19:31:25.691Z,101439.04
2018-06-20T19:33:54.328Z,101442.59
2018-06-20T19:36:23.015Z,101445.37
2018-06-20T19:38:51.413Z,101442.97
2018-06-20T19:41:20.056Z,101447.18
2018-06-20T19:43:54.135Z,101446.59
2018-06-20T19:46:22.988Z,101454.59
2018-06-20T19:48:51.428Z,101455.73
2018-06-20T19:51:19.892Z,101452.66
2018-06-20T19:53:48.538Z,101453.75
2018-06-20T19:56:16.880Z,101459.06
2018-06-20T19:58:45.281Z,101459.09
2018-06-20T20:01:13.922Z,101462.08
2018-06-20T20:03:42.440Z,101463.61
2018-06-20T20:06:11.221Z,101461.48
2018-06-20T20:08:39.793Z,101467.30
2018-06-20T20:11:08.684Z,101471.33
2018-06-20T20:13:37.408Z,101466.30
2018-06-20T20:16:05.753Z,101473.67
2018-06-20T20:18:34.351Z,101473.50
2018-06-20T20:21:03.325Z,101469.58
2018-06-20T20:23:31.729Z,101469.45
2018-06-20T20:26:00.195Z,101466.80
2018-06-20T20:28:28.620Z,101466.95
2018-06-20T20:30:57.734Z,101471.05
2018-06-20T20:33:26.183Z,101469.31
2018-06-20T20:35:54.725Z,101469.08
2018-06-20T20:38:23.141Z,101474.89
2018-06-20T20:40:51.925Z,101467.41
2018-06-20T20:43:20.964Z,101471.66
2018-06-20T20:45:49.496Z,101471.31
2018-06-20T20:48:18.020Z,101470.93
2018-06-20T20:50:46.753Z,101471.08
2018-06-20T20:53:15.536Z,101469.20
2018-06-20T20:55:44.426Z,101468.72
2018-06-20T20:58:13.032Z,101471.22
2018-06-20T21:00:41.701Z,101470.08
2018-06-20T21:03:10.141Z,101465.12
2018-06-20T21:05:38.701Z,101466.00
2018-06-20T21:08:07.257Z,101459.76
2018-06-20T21:10:36.130Z,101463.23
2018-06-20T21:13:04.693Z,101462.31
2018-06-20T21:15:33.284Z,101460.23
2018-06-20T21:18:01.850Z,101464.08
2018-06-20T21:20:30.749Z,101459.84
2018-06-20T21:22:59.472Z,101455.34
2018-06-20T21:25:28.121Z,101454.67
2018-06-20T21:27:56.767Z,101457.04
2018-06-20T21:30:25.182Z,101452.47
2018-06-20T21:32:53.874Z,101447.59
2018-06-20T21:35:22.432Z,101444.27
2018-06-20T21:37:50.916Z,101441.58
2018-06-20T21:40:19.720Z,101441.38
2018-06-20T21:42:48.386Z,101445.83
2018-06-20T21:45:16.683Z,101446.69
2018-06-20T21:47:45.295Z,101441.97
2018-06-20T21:50:13.821Z,101438.80
2018-06-20T21:52:42.489Z,101433.48
2018-06-20T21:55:11.188Z,101434.28
2018-06-20T21:57:39.653Z,101434.99
2018-06-20T22:00:10.445Z,101430.51
2018-06-20T22:02:39.517Z,101428.65
2018-06-20T22:05:08.639Z,101425.25
2018-06-20T22:07:37.816Z,101429.13
2018-06-20T22:10:07.180Z,101422.03
2018-06-20T22:12:35.717Z,101417.86
2018-06-20T22:15:04.345Z,101417.69
2018-06-20T22:17:33.092Z,101419.05
2018-06-20T22:20:01.956Z,101415.23
2018-06-20T22:22:30.414Z,101405.84
2018-06-20T22:24:59.077Z,101406.91
2018-06-20T22:27:27.875Z,101410.09
2018-06-20T22:29:56.348Z,101410.59
2018-06-20T22:32:24.797Z,101411.94
2018-06-20T22:34:53.134Z,101411.43
2018-06-20T22:37:21.847Z,101413.11
2018-06-20T22:39:50.400Z,101415.34
2018-06-20T22:42:19.098Z,101404.77
2018-06-20T22:44:47.674Z,101408.50
2018-06-20T22:47:16.123Z,101410.72
2018-06-20T22:49:44.668Z,101408.55
2018-06-20T22:52:13.396Z,101410.86
2018-06-20T22:54:42.275Z,101409.50
2018-06-20T22:57:10.728Z,101414.38
2018-06-20T22:59:39.053Z,101412.57
2018-06-20T23:02:07.544Z,101412.13
2018-06-20T23:04:36.017Z,101413.78
2018-06-20T23:07:04.732Z,101412.41
2018-06-20T23:09:33.205Z,101414.22
2018-06-20T23:12:01.763Z,101416.79
2018-06-20T23:14:30.399Z,101418.24
2018-06-20T23:16:58.803Z,101410.50
2018-06-20T23:19:27.509Z,101417.80
2018-06-20T23:21:56.114Z,101415.58
2018-06-20T23:24:24.651Z,101415.99
2018-06-20T23:26:53.207Z,101409.31
2018-06-20T23:29:21.707Z,101410.57
2018-06-20T23:31:50.355Z,101413.78
2018-06-20T23:34:18.876Z,101405.09
2018-06-20T23:36:47.528Z,101412.78
2018-06-20T23:39:16.095Z,101412.42
2018-06-20T23:41:44.786Z,101414.95
2018-06-20T23:44:13.475Z,101412.38
2018-06-20T23:46:41.973Z,101403.02
2018-06-20T23:49:10.641Z,101399.70
2018-06-20T23:51:39.368Z,101394.62
2018-06-20T23:54:08.045Z,101386.84
2018-06-20T23:56:36.583Z,101393.98
2018-06-20T23:59:05.227Z,101388.11
